Terminal Aerodrome Forecast
Issued by NWS Blacksburg, VA

Current Version | Previous Version | Graphics & Text | Print | Product List | Glossary On
Versions: 1 2 3 4 5 6 7 8 9 10 11 12 13 14 15 16 17 18 19 20 21 22 23 24 25 26 27 28 29 30 31 32 33 34 35 36 37 38 39
000
FTUS41 KRNK 180747 AAA
TAFBLF
TAF AMD
KBLF 180747Z 1808/1906 29010G19KT P6SM OVC013
      TEMPO 1808/1812 SCT013 BKN070
     FM181300 29013G33KT P6SM BKN008
     FM181900 29011G22KT P6SM BKN035
     FM190000 29006KT P6SM BKN025=

USA.gov is the U.S. government's official web portal to all federal, state and local government web resources and services.